Time;durP1;ratioP1;P1;durP2;ratioP2;P2;SDS_P1;SDS_P2;PMS_P1;PMS_P2;Temp;Humidity;BMP_temperature;BMP_pressure;BME280_temperature;BME280_humidity;BME280_pressure;Samples;Min_cycle;Max_cycle;Signal;HPM_P1;HPM_P2
2022/11/13 00:02:11;;;;;;;50.85;34.85;;;;;;;;;;4963489;28;20562;-78
2022/11/13 00:04:36;;;;;;;47.13;35.00;;;;;;;;;;4959138;28;20038;-79
2022/11/13 00:07:02;;;;;;;48.85;33.15;;;;;;;;;;4981107;28;20434;-77
2022/11/13 00:09:30;;;;;;;48.70;32.90;;;;;;;;;;4983928;28;20038;-79
2022/11/13 00:11:55;;;;;;;46.97;32.25;;;;;;;;;;4979075;28;20569;-78
2022/11/13 00:14:21;;;;;;;47.92;32.78;;;;;;;;;;4982591;28;20033;-78
2022/11/13 00:16:49;;;;;;;49.45;32.85;;;;;;;;;;4966018;28;20034;-78
2022/11/13 00:19:15;;;;;;;50.95;33.65;;;;;;;;;;4957663;28;20054;-77
2022/11/13 00:21:41;;;;;;;45.15;30.27;;;;;;;;;;4979277;28;20042;-77
2022/11/13 00:24:10;;;;;;;42.10;29.70;;;;;;;;;;4978895;28;20391;-77
2022/11/13 00:26:37;;;;;;;49.50;32.88;;;;;;;;;;4977650;28;20050;-77
2022/11/13 00:29:02;;;;;;;48.80;32.67;;;;;;;;;;4954786;28;20033;-77
2022/11/13 00:31:28;;;;;;;48.55;32.70;;;;;;;;;;4953101;28;20088;-77
2022/11/13 00:33:57;;;;;;;45.22;32.05;;;;;;;;;;4952225;28;20044;-76
2022/11/13 00:36:26;;;;;;;45.20;31.47;;;;;;;;;;4957004;28;20040;-77
2022/11/13 00:38:52;;;;;;;47.00;31.10;;;;;;;;;;4957123;28;20493;-77
2022/11/13 00:41:18;;;;;;;45.45;30.35;;;;;;;;;;4977867;28;20415;-78
2022/11/13 00:43:46;;;;;;;45.50;30.58;;;;;;;;;;4944228;28;20026;-78
2022/11/13 00:46:13;;;;;;;44.08;30.15;;;;;;;;;;4965331;28;20041;-78
2022/11/13 00:48:39;;;;;;;44.63;31.67;;;;;;;;;;4965850;28;20045;-78
2022/11/13 00:51:05;;;;;;;41.15;31.70;;;;;;;;;;4966373;28;20030;-78
2022/11/13 00:53:30;;;;;;;50.45;32.03;;;;;;;;;;4977996;28;20397;-78
2022/11/13 00:55:56;;;;;;;39.10;29.80;;;;;;;;;;4967742;28;20632;-78
2022/11/13 00:58:21;;;;;;;48.13;31.02;;;;;;;;;;4942952;28;20034;-79
2022/11/13 01:00:47;;;;;;;41.08;29.90;;;;;;;;;;4968632;28;20069;-79
2022/11/13 01:03:16;;;;;;;42.35;29.00;;;;;;;;;;4948488;28;20404;-79
2022/11/13 01:05:42;;;;;;;44.22;30.38;;;;;;;;;;4967051;28;22258;-79
2022/11/13 01:08:09;;;;;;;44.60;31.55;;;;;;;;;;4964375;28;20152;-77
2022/11/13 01:10:39;;;;;;;51.85;35.30;;;;;;;;;;4941663;28;20446;-79
2022/11/13 01:13:07;;;;;;;52.65;35.13;;;;;;;;;;4965817;28;20353;-79
2022/11/13 01:15:34;;;;;;;50.42;33.88;;;;;;;;;;4915268;28;20559;-78
2022/11/13 01:17:59;;;;;;;53.20;34.83;;;;;;;;;;4964805;28;20076;-78
2022/11/13 01:20:25;;;;;;;50.30;35.25;;;;;;;;;;4933023;28;20034;-79
2022/11/13 01:22:50;;;;;;;51.80;34.67;;;;;;;;;;4955237;28;20034;-79
2022/11/13 01:25:17;;;;;;;46.58;34.38;;;;;;;;;;4960430;28;20042;-79
2022/11/13 01:27:42;;;;;;;48.95;34.80;;;;;;;;;;4976317;28;20030;-78
2022/11/13 01:30:08;;;;;;;49.25;34.22;;;;;;;;;;4978282;28;20034;-79
2022/11/13 01:32:33;;;;;;;53.00;35.15;;;;;;;;;;4977183;28;20060;-78
2022/11/13 01:35:01;;;;;;;51.42;35.55;;;;;;;;;;4975446;28;20501;-79
2022/11/13 01:37:27;;;;;;;48.28;34.42;;;;;;;;;;4952973;28;20034;-79
2022/11/13 01:39:52;;;;;;;47.88;33.20;;;;;;;;;;4929590;28;20035;-79
2022/11/13 01:42:20;;;;;;;50.08;33.13;;;;;;;;;;4966104;28;20037;-79
2022/11/13 01:44:52;;;;;;;47.03;34.65;;;;;;;;;;4966013;28;20305;-79
2022/11/13 01:47:18;;;;;;;48.72;34.50;;;;;;;;;;4966127;28;20509;-79
2022/11/13 01:49:45;;;;;;;50.40;33.80;;;;;;;;;;4966722;28;20044;-79
2022/11/13 01:52:18;;;;;;;50.63;35.38;;;;;;;;;;4938301;28;20073;-79
2022/11/13 01:54:59;;;;;;;48.20;33.30;;;;;;;;;;4965220;28;20044;-79
2022/11/13 01:57:24;;;;;;;44.83;31.63;;;;;;;;;;4966150;28;20053;-79
2022/11/13 01:59:57;;;;;;;45.30;32.15;;;;;;;;;;4965574;28;20069;-78
2022/11/13 02:02:23;;;;;;;45.03;32.53;;;;;;;;;;4956141;28;20396;-77
2022/11/13 02:04:48;;;;;;;47.47;32.58;;;;;;;;;;4960943;28;20598;-77
2022/11/13 02:07:15;;;;;;;44.00;31.30;;;;;;;;;;4963953;28;20041;-78
2022/11/13 02:09:45;;;;;;;46.58;32.53;;;;;;;;;;4965971;28;21074;-78
2022/11/13 02:12:12;;;;;;;40.38;30.50;;;;;;;;;;4945300;28;20132;-78
2022/11/13 02:14:39;;;;;;;44.85;30.92;;;;;;;;;;4966477;28;20048;-78
2022/11/13 02:17:07;;;;;;;46.30;31.80;;;;;;;;;;4964693;28;20091;-78
2022/11/13 02:19:35;;;;;;;49.45;33.15;;;;;;;;;;4964754;28;20038;-78
2022/11/13 02:22:21;;;;;;;55.17;36.28;;;;;;;;;;4964456;28;20079;-78
2022/11/13 02:24:49;;;;;;;50.00;35.20;;;;;;;;;;4942537;28;20210;-78
2022/11/13 02:27:18;;;;;;;48.92;32.53;;;;;;;;;;4964109;28;20560;-78
2022/11/13 02:29:44;;;;;;;44.90;29.85;;;;;;;;;;4964791;28;20525;-78
2022/11/13 02:32:10;;;;;;;43.72;29.90;;;;;;;;;;4965340;28;20046;-78
2022/11/13 02:34:35;;;;;;;43.58;30.23;;;;;;;;;;4966283;28;20080;-78
2022/11/13 02:37:04;;;;;;;46.88;31.05;;;;;;;;;;4929225;28;20746;-77
2022/11/13 02:39:30;;;;;;;49.10;31.75;;;;;;;;;;4943942;28;20037;-76
2022/11/13 02:41:58;;;;;;;44.60;30.35;;;;;;;;;;4937178;28;20055;-76
2022/11/13 02:44:24;;;;;;;44.85;29.90;;;;;;;;;;4946321;28;20500;-77
2022/11/13 02:46:50;;;;;;;52.35;32.42;;;;;;;;;;4953229;28;20046;-77
2022/11/13 02:49:16;;;;;;;49.58;32.58;;;;;;;;;;4946353;28;20305;-77
2022/11/13 02:51:44;;;;;;;49.47;35.45;;;;;;;;;;4970823;28;20345;-76
2022/11/13 02:54:09;;;;;;;50.50;36.10;;;;;;;;;;4967332;28;20065;-76
2022/11/13 02:56:40;;;;;;;47.08;33.88;;;;;;;;;;4970979;28;20033;-76
2022/11/13 02:59:05;;;;;;;43.05;27.80;;;;;;;;;;4919646;28;20152;-76
2022/11/13 03:01:33;;;;;;;44.75;28.05;;;;;;;;;;4954559;28;20112;-76
2022/11/13 03:04:01;;;;;;;42.78;26.88;;;;;;;;;;4928879;28;20111;-76
2022/11/13 03:06:29;;;;;;;40.63;27.80;;;;;;;;;;4970753;28;20046;-76
2022/11/13 03:08:55;;;;;;;41.00;26.45;;;;;;;;;;4971045;28;20101;-76
2022/11/13 03:11:20;;;;;;;41.03;27.08;;;;;;;;;;4946373;28;20625;-76
2022/11/13 03:13:51;;;;;;;38.30;25.98;;;;;;;;;;4938991;28;20097;-77
2022/11/13 03:16:18;;;;;;;41.97;26.50;;;;;;;;;;4953299;28;20217;-77
2022/11/13 03:18:44;;;;;;;40.35;24.60;;;;;;;;;;4968663;28;20026;-76
2022/11/13 03:21:14;;;;;;;36.17;25.52;;;;;;;;;;4950469;28;20038;-76
2022/11/13 03:23:47;;;;;;;37.60;25.27;;;;;;;;;;4927777;28;20334;-76
2022/11/13 03:26:27;;;;;;;40.22;25.17;;;;;;;;;;4923723;28;20026;-77
2022/11/13 03:28:56;;;;;;;34.42;25.05;;;;;;;;;;4936945;28;20549;-76
2022/11/13 03:31:21;;;;;;;42.22;24.25;;;;;;;;;;4973127;28;20030;-76
2022/11/13 03:33:59;;;;;;;38.03;24.65;;;;;;;;;;4962526;28;20127;-76
2022/11/13 03:36:26;;;;;;;37.33;24.42;;;;;;;;;;4970855;28;20624;-76
2022/11/13 03:38:54;;;;;;;39.13;25.05;;;;;;;;;;4974190;28;20029;-78
2022/11/13 03:41:20;;;;;;;36.28;24.13;;;;;;;;;;4974916;28;20120;-79
2022/11/13 03:43:47;;;;;;;40.13;24.65;;;;;;;;;;4974511;28;20052;-78
2022/11/13 03:46:15;;;;;;;36.85;24.05;;;;;;;;;;4973746;28;20612;-78
2022/11/13 03:48:41;;;;;;;35.50;24.05;;;;;;;;;;4949387;28;20034;-78
2022/11/13 03:51:06;;;;;;;34.03;23.98;;;;;;;;;;4976975;28;20031;-78
2022/11/13 03:53:35;;;;;;;34.33;24.20;;;;;;;;;;4976752;28;20049;-78
2022/11/13 03:56:03;;;;;;;32.85;22.70;;;;;;;;;;4954982;28;20049;-78
2022/11/13 03:58:28;;;;;;;31.70;21.85;;;;;;;;;;4978413;28;20180;-78
2022/11/13 04:00:54;;;;;;;33.47;21.85;;;;;;;;;;4954642;28;20077;-79
2022/11/13 04:03:20;;;;;;;37.95;22.75;;;;;;;;;;4959902;28;20552;-78
2022/11/13 04:05:46;;;;;;;31.48;22.35;;;;;;;;;;4966655;28;20623;-77
2022/11/13 04:08:14;;;;;;;31.60;21.17;;;;;;;;;;4965915;28;20121;-76
2022/11/13 04:10:39;;;;;;;29.83;21.35;;;;;;;;;;4978866;28;20302;-77
2022/11/13 04:13:05;;;;;;;32.25;21.88;;;;;;;;;;4964941;28;20041;-78
2022/11/13 04:15:30;;;;;;;32.72;21.40;;;;;;;;;;4956328;28;20080;-77
2022/11/13 04:17:58;;;;;;;32.38;21.48;;;;;;;;;;4980025;28;20477;-78
2022/11/13 04:20:29;;;;;;;33.33;21.23;;;;;;;;;;4963405;28;20525;-78
2022/11/13 04:22:55;;;;;;;30.90;20.88;;;;;;;;;;4977735;28;20418;-78
2022/11/13 04:25:23;;;;;;;30.17;20.85;;;;;;;;;;4970530;28;20168;-78
2022/11/13 04:27:49;;;;;;;31.80;20.35;;;;;;;;;;4969515;28;20042;-78
2022/11/13 04:30:17;;;;;;;32.72;20.77;;;;;;;;;;4977793;28;20041;-78
2022/11/13 04:32:43;;;;;;;35.03;22.38;;;;;;;;;;4979301;28;20038;-78
2022/11/13 04:35:09;;;;;;;33.83;22.30;;;;;;;;;;4976832;28;20660;-78
2022/11/13 04:37:38;;;;;;;31.10;21.58;;;;;;;;;;4956745;28;20042;-76
2022/11/13 04:40:03;;;;;;;33.72;21.45;;;;;;;;;;4932367;28;22791;-78
2022/11/13 04:45:16;;;;;;;30.08;21.48;;;;;;;;;;4957389;28;20038;-78
2022/11/13 04:47:42;;;;;;;32.13;21.77;;;;;;;;;;4976274;28;20537;-78
2022/11/13 04:50:07;;;;;;;34.50;23.13;;;;;;;;;;4978560;28;20045;-78
2022/11/13 04:52:35;;;;;;;36.00;23.02;;;;;;;;;;4979824;28;20496;-78
2022/11/13 04:55:00;;;;;;;34.75;23.73;;;;;;;;;;4946570;28;20357;-78
2022/11/13 04:57:26;;;;;;;37.67;24.45;;;;;;;;;;4979032;28;20048;-78
2022/11/13 04:59:51;;;;;;;36.10;24.08;;;;;;;;;;4962361;28;20033;-78
2022/11/13 05:02:21;;;;;;;34.95;23.95;;;;;;;;;;4958810;28;20057;-78
2022/11/13 05:04:56;;;;;;;35.67;26.08;;;;;;;;;;4970806;28;20100;-77
2022/11/13 05:07:22;;;;;;;36.03;25.25;;;;;;;;;;4919934;28;20258;-77
2022/11/13 05:09:47;;;;;;;40.92;26.85;;;;;;;;;;4940340;28;20034;-77
2022/11/13 05:12:23;;;;;;;40.22;25.38;;;;;;;;;;4973859;28;20106;-78
2022/11/13 05:14:48;;;;;;;37.63;25.17;;;;;;;;;;4974868;28;20539;-79
2022/11/13 05:17:13;;;;;;;33.95;24.20;;;;;;;;;;4959841;28;20056;-79
2022/11/13 05:19:38;;;;;;;35.10;23.85;;;;;;;;;;4977039;28;20468;-78
2022/11/13 05:22:04;;;;;;;36.25;24.30;;;;;;;;;;4957924;28;20038;-79
2022/11/13 05:24:33;;;;;;;34.92;23.33;;;;;;;;;;4953233;28;20104;-79
2022/11/13 05:26:59;;;;;;;36.42;23.02;;;;;;;;;;4962059;28;20038;-78
2022/11/13 05:29:24;;;;;;;31.55;22.58;;;;;;;;;;4951084;28;20038;-78
2022/11/13 05:32:00;;;;;;;34.63;22.73;;;;;;;;;;4964230;28;20042;-77
2022/11/13 05:34:28;;;;;;;33.83;23.85;;;;;;;;;;4939953;28;20069;-77
2022/11/13 05:36:53;;;;;;;36.65;23.00;;;;;;;;;;4972718;28;20656;-77
2022/11/13 05:39:22;;;;;;;33.22;23.58;;;;;;;;;;4944006;28;20401;-77
2022/11/13 05:41:50;;;;;;;32.80;23.63;;;;;;;;;;4907320;28;20702;-77
2022/11/13 05:44:16;;;;;;;36.47;23.60;;;;;;;;;;4950275;28;20035;-76
2022/11/13 05:46:41;;;;;;;36.60;24.15;;;;;;;;;;4950538;28;20533;-76
2022/11/13 05:49:08;;;;;;;34.08;24.08;;;;;;;;;;4936736;28;20378;-77
2022/11/13 05:51:37;;;;;;;36.05;24.05;;;;;;;;;;4933987;28;20058;-76
2022/11/13 05:54:06;;;;;;;30.52;22.65;;;;;;;;;;4964207;28;20763;-77
2022/11/13 05:56:49;;;;;;;31.00;23.08;;;;;;;;;;4924456;28;20172;-78
2022/11/13 05:59:14;;;;;;;33.10;22.52;;;;;;;;;;4917306;28;20042;-78
2022/11/13 06:01:40;;;;;;;33.53;22.60;;;;;;;;;;4928271;28;20114;-78
2022/11/13 06:04:08;;;;;;;32.22;22.48;;;;;;;;;;4912606;28;20609;-78
2022/11/13 06:06:36;;;;;;;31.80;22.20;;;;;;;;;;4928681;28;20105;-77
2022/11/13 06:09:04;;;;;;;28.98;22.13;;;;;;;;;;4916659;28;20337;-76
2022/11/13 06:11:31;;;;;;;31.77;21.80;;;;;;;;;;4921301;28;20278;-77
2022/11/13 06:13:57;;;;;;;33.80;23.17;;;;;;;;;;4918817;28;20046;-76
2022/11/13 06:16:26;;;;;;;31.75;22.52;;;;;;;;;;4899950;28;20043;-76
2022/11/13 06:18:56;;;;;;;31.77;23.92;;;;;;;;;;4913531;28;20138;-77
2022/11/13 06:21:22;;;;;;;33.67;24.58;;;;;;;;;;4930085;28;20158;-77
2022/11/13 06:23:48;;;;;;;30.48;23.05;;;;;;;;;;4943266;28;20070;-77
2022/11/13 06:26:20;;;;;;;36.10;24.13;;;;;;;;;;4930273;28;20085;-76
2022/11/13 06:28:45;;;;;;;32.38;24.27;;;;;;;;;;4943072;28;20034;-78
2022/11/13 06:31:14;;;;;;;30.58;22.80;;;;;;;;;;4949224;28;20397;-78
2022/11/13 06:33:42;;;;;;;33.58;25.00;;;;;;;;;;4927045;28;20049;-78
2022/11/13 06:36:29;;;;;;;34.25;25.77;;;;;;;;;;4965995;28;20076;-78
2022/11/13 06:38:55;;;;;;;32.45;24.13;;;;;;;;;;4954496;28;20064;-79
2022/11/13 06:41:21;;;;;;;34.10;23.77;;;;;;;;;;4951864;28;20030;-78
2022/11/13 06:43:49;;;;;;;31.70;23.60;;;;;;;;;;4949917;28;20038;-78
2022/11/13 06:46:16;;;;;;;31.20;23.65;;;;;;;;;;4965523;28;20049;-78
2022/11/13 06:48:44;;;;;;;29.08;21.35;;;;;;;;;;4921509;28;20330;-78
2022/11/13 06:51:14;;;;;;;25.85;20.85;;;;;;;;;;4944232;28;20033;-78
2022/11/13 06:53:40;;;;;;;34.20;22.35;;;;;;;;;;4944568;28;20474;-77
2022/11/13 06:56:06;;;;;;;30.38;22.27;;;;;;;;;;4940793;28;20395;-77
2022/11/13 06:58:32;;;;;;;32.63;22.33;;;;;;;;;;4937067;28;20784;-76
2022/11/13 07:01:17;;;;;;;28.15;21.58;;;;;;;;;;4940163;28;20159;-76
2022/11/13 07:03:42;;;;;;;29.80;22.35;;;;;;;;;;4939855;28;20042;-76
2022/11/13 07:06:12;;;;;;;30.98;22.33;;;;;;;;;;4927173;28;20391;-76
2022/11/13 07:08:38;;;;;;;26.83;21.65;;;;;;;;;;4923683;28;20096;-76
2022/11/13 07:11:03;;;;;;;28.40;21.92;;;;;;;;;;4941558;28;20042;-78
2022/11/13 07:13:29;;;;;;;29.35;21.58;;;;;;;;;;4917470;28;21798;-76
2022/11/13 07:16:00;;;;;;;29.13;20.98;;;;;;;;;;4936354;28;20062;-78
2022/11/13 07:18:27;;;;;;;25.60;20.35;;;;;;;;;;4940525;28;20451;-77
2022/11/13 07:20:53;;;;;;;28.38;20.63;;;;;;;;;;4930545;28;20070;-77
2022/11/13 07:23:18;;;;;;;26.08;20.45;;;;;;;;;;4923298;28;20039;-77
2022/11/13 07:25:45;;;;;;;25.95;21.40;;;;;;;;;;4940625;28;20705;-77
2022/11/13 07:28:11;;;;;;;27.10;21.08;;;;;;;;;;4921257;28;20045;-77
2022/11/13 07:30:37;;;;;;;24.95;20.30;;;;;;;;;;4943225;28;21817;-77
2022/11/13 07:33:05;;;;;;;25.60;20.00;;;;;;;;;;4924717;28;20786;-77
2022/11/13 07:35:30;;;;;;;28.60;20.40;;;;;;;;;;4917841;28;20065;-77
2022/11/13 07:37:56;;;;;;;27.70;20.52;;;;;;;;;;4941494;28;20680;-77
2022/11/13 07:40:22;;;;;;;25.08;19.05;;;;;;;;;;4946730;28;20141;-77
2022/11/13 07:42:47;;;;;;;24.63;19.92;;;;;;;;;;4922396;28;20458;-77
2022/11/13 07:45:13;;;;;;;28.30;20.45;;;;;;;;;;4939947;28;20521;-77
2022/11/13 07:47:39;;;;;;;29.55;21.50;;;;;;;;;;4955530;28;20560;-77
2022/11/13 07:50:06;;;;;;;27.27;21.83;;;;;;;;;;4963898;28;20589;-77
2022/11/13 07:52:35;;;;;;;30.38;22.95;;;;;;;;;;4950588;28;20050;-77
2022/11/13 07:55:01;;;;;;;29.42;20.88;;;;;;;;;;4964798;28;20358;-76
2022/11/13 07:57:26;;;;;;;27.92;21.60;;;;;;;;;;4953829;28;22519;-77
2022/11/13 07:59:53;;;;;;;26.65;21.20;;;;;;;;;;4966988;28;20034;-76
2022/11/13 08:02:19;;;;;;;27.15;20.23;;;;;;;;;;4956320;28;20582;-76
2022/11/13 08:04:44;;;;;;;27.45;19.67;;;;;;;;;;4952294;28;20473;-78
2022/11/13 08:07:11;;;;;;;25.02;19.23;;;;;;;;;;4952874;28;20041;-77
2022/11/13 08:09:36;;;;;;;22.77;18.38;;;;;;;;;;4953948;28;20044;-75
2022/11/13 08:12:02;;;;;;;22.88;17.30;;;;;;;;;;4966193;28;20494;-75
2022/11/13 08:14:27;;;;;;;22.13;17.73;;;;;;;;;;4967849;28;20208;-77
2022/11/13 08:16:55;;;;;;;21.83;16.60;;;;;;;;;;4969514;28;20188;-77
2022/11/13 08:19:20;;;;;;;26.00;16.52;;;;;;;;;;4975755;28;20144;-76
2022/11/13 08:21:46;;;;;;;20.25;15.70;;;;;;;;;;4978114;28;20056;-76
2022/11/13 08:24:14;;;;;;;23.80;15.30;;;;;;;;;;4975461;28;20046;-76
2022/11/13 08:26:39;;;;;;;19.50;15.02;;;;;;;;;;4977303;28;20034;-76
2022/11/13 08:29:05;;;;;;;18.55;14.55;;;;;;;;;;4979785;28;20732;-77
2022/11/13 08:31:30;;;;;;;17.38;13.82;;;;;;;;;;4961604;28;20038;-76
2022/11/13 08:33:56;;;;;;;17.17;13.45;;;;;;;;;;4950799;28;20052;-77
2022/11/13 08:36:21;;;;;;;18.63;13.57;;;;;;;;;;4952157;28;20042;-78
2022/11/13 08:38:46;;;;;;;23.80;14.80;;;;;;;;;;4930530;28;20694;-78
2022/11/13 08:41:12;;;;;;;20.02;15.00;;;;;;;;;;4963562;28;20042;-77
2022/11/13 08:43:37;;;;;;;19.70;15.13;;;;;;;;;;4958879;28;20452;-76
2022/11/13 08:46:05;;;;;;;21.45;14.52;;;;;;;;;;4966020;28;20042;-77
2022/11/13 08:48:30;;;;;;;19.70;13.73;;;;;;;;;;4945227;28;20560;-77
2022/11/13 08:50:56;;;;;;;20.25;15.05;;;;;;;;;;4963743;28;20115;-74
2022/11/13 08:53:22;;;;;;;20.90;15.75;;;;;;;;;;4968445;28;21989;-76
2022/11/13 08:55:50;;;;;;;20.70;15.80;;;;;;;;;;4950990;28;20045;-76
2022/11/13 08:58:16;;;;;;;19.63;15.20;;;;;;;;;;4968895;28;21730;-76
2022/11/13 09:00:41;;;;;;;17.88;15.70;;;;;;;;;;4951580;28;20491;-76
2022/11/13 09:03:10;;;;;;;22.58;16.23;;;;;;;;;;4967816;28;21392;-76
2022/11/13 09:05:35;;;;;;;21.55;15.73;;;;;;;;;;4969686;28;20149;-77
2022/11/13 09:08:02;;;;;;;22.90;15.35;;;;;;;;;;4928451;28;20032;-76
2022/11/13 09:10:28;;;;;;;19.77;15.52;;;;;;;;;;4951335;28;20231;-76
2022/11/13 09:12:56;;;;;;;18.10;15.15;;;;;;;;;;4926112;28;20053;-77
2022/11/13 09:15:22;;;;;;;18.20;14.75;;;;;;;;;;4968443;28;20042;-76
2022/11/13 09:17:47;;;;;;;19.20;13.88;;;;;;;;;;4968330;28;20156;-77
2022/11/13 09:20:12;;;;;;;17.30;14.07;;;;;;;;;;4965047;28;20041;-76
2022/11/13 09:22:38;;;;;;;14.95;12.15;;;;;;;;;;4964865;28;20440;-76
2022/11/13 09:25:03;;;;;;;17.58;12.15;;;;;;;;;;4965872;28;20484;-76
2022/11/13 09:27:29;;;;;;;12.38;10.43;;;;;;;;;;4935218;28;20038;-76
2022/11/13 09:29:54;;;;;;;15.13;10.20;;;;;;;;;;4955151;28;20330;-76
2022/11/13 09:32:19;;;;;;;14.90;10.60;;;;;;;;;;4940662;28;20081;-76
2022/11/13 09:34:46;;;;;;;13.13;9.82;;;;;;;;;;4964298;28;23064;-76
2022/11/13 09:37:13;;;;;;;14.07;9.98;;;;;;;;;;4935929;28;20037;-76
2022/11/13 09:39:41;;;;;;;11.20;9.57;;;;;;;;;;4923411;28;20100;-76
2022/11/13 09:42:07;;;;;;;13.30;9.60;;;;;;;;;;4957493;28;20029;-76
2022/11/13 09:44:35;;;;;;;12.88;10.07;;;;;;;;;;4964885;28;20061;-76
2022/11/13 09:47:04;;;;;;;12.02;9.70;;;;;;;;;;4959430;28;20149;-76
2022/11/13 09:49:34;;;;;;;14.02;10.63;;;;;;;;;;4965423;28;20041;-76
2022/11/13 09:52:09;;;;;;;14.25;10.60;;;;;;;;;;4948409;28;20080;-76
2022/11/13 09:54:34;;;;;;;13.05;9.93;;;;;;;;;;4965434;28;20124;-76
2022/11/13 09:57:12;;;;;;;12.77;10.80;;;;;;;;;;4969244;28;20034;-76
2022/11/13 09:59:37;;;;;;;11.50;9.80;;;;;;;;;;4970873;28;20030;-76
2022/11/13 10:02:22;;;;;;;14.60;10.68;;;;;;;;;;4977543;28;20030;-75
2022/11/13 10:04:57;;;;;;;13.80;10.10;;;;;;;;;;4972439;28;20036;-76
2022/11/13 10:07:36;;;;;;;12.95;9.18;;;;;;;;;;4953340;28;20048;-76
2022/11/13 10:10:07;;;;;;;12.18;9.18;;;;;;;;;;4958064;28;20049;-75
2022/11/13 10:12:32;;;;;;;14.77;9.38;;;;;;;;;;4963119;28;20633;-76
2022/11/13 10:15:03;;;;;;;11.02;9.07;;;;;;;;;;4951774;28;20606;-75
2022/11/13 10:17:47;;;;;;;11.25;8.55;;;;;;;;;;4948583;28;20088;-76
2022/11/13 10:20:15;;;;;;;12.23;10.02;;;;;;;;;;4960511;28;20033;-75
2022/11/13 10:22:43;;;;;;;15.00;9.43;;;;;;;;;;4955035;28;20038;-76
2022/11/13 10:25:15;;;;;;;12.35;9.40;;;;;;;;;;4948358;28;20080;-75
2022/11/13 10:27:41;;;;;;;12.98;9.40;;;;;;;;;;4964024;28;20216;-76
2022/11/13 10:30:11;;;;;;;14.48;9.55;;;;;;;;;;4965204;28;20482;-75
2022/11/13 10:32:37;;;;;;;20.05;15.32;;;;;;;;;;4970113;28;20037;-75
2022/11/13 10:35:05;;;;;;;10.93;9.30;;;;;;;;;;4974415;28;20517;-75
2022/11/13 10:37:40;;;;;;;13.55;9.88;;;;;;;;;;4971282;28;20135;-75
2022/11/13 10:40:08;;;;;;;12.93;9.13;;;;;;;;;;4962287;28;20612;-75
2022/11/13 10:42:38;;;;;;;11.25;8.45;;;;;;;;;;4949828;28;20049;-76
2022/11/13 10:45:03;;;;;;;10.13;7.93;;;;;;;;;;4950541;28;20136;-76
2022/11/13 10:47:31;;;;;;;16.98;11.63;;;;;;;;;;4968661;28;21152;-75
2022/11/13 10:50:08;;;;;;;16.00;11.00;;;;;;;;;;4968768;28;20172;-75
2022/11/13 10:52:43;;;;;;;12.23;8.45;;;;;;;;;;4965366;28;20095;-75
2022/11/13 10:55:13;;;;;;;10.25;7.70;;;;;;;;;;4966648;28;20073;-76
2022/11/13 10:57:39;;;;;;;9.95;8.55;;;;;;;;;;4954829;28;20426;-76
2022/11/13 11:00:20;;;;;;;10.73;7.32;;;;;;;;;;4952332;28;20577;-75
2022/11/13 11:02:49;;;;;;;9.43;7.32;;;;;;;;;;4970183;28;20406;-76
2022/11/13 11:05:21;;;;;;;10.40;8.02;;;;;;;;;;4952877;28;20443;-76
2022/11/13 11:07:46;;;;;;;11.27;7.50;;;;;;;;;;4962318;28;21753;-76
2022/11/13 11:10:21;;;;;;;11.20;7.43;;;;;;;;;;4962247;28;20169;-76
2022/11/13 11:12:58;;;;;;;10.13;6.78;;;;;;;;;;4950115;28;20261;-76
2022/11/13 11:15:31;;;;;;;8.88;6.28;;;;;;;;;;4974731;28;20569;-76
2022/11/13 11:18:07;;;;;;;7.70;5.95;;;;;;;;;;4959015;28;20119;-76
2022/11/13 11:20:43;;;;;;;9.85;6.40;;;;;;;;;;4972260;28;20214;-75
2022/11/13 11:23:44;;;;;;;11.00;7.20;;;;;;;;;;4967170;28;20241;-76
2022/11/13 11:26:21;;;;;;;8.20;5.95;;;;;;;;;;4868497;29;20800;-76
2022/11/13 11:28:48;;;;;;;7.15;5.70;;;;;;;;;;4949697;28;20585;-75
2022/11/13 11:31:27;;;;;;;7.88;5.63;;;;;;;;;;4971585;28;20250;-75
2022/11/13 11:34:12;;;;;;;7.20;5.32;;;;;;;;;;4947084;28;20560;-75
2022/11/13 11:36:45;;;;;;;8.68;5.00;;;;;;;;;;4968093;28;20041;-75
2022/11/13 11:39:25;;;;;;;7.72;4.65;;;;;;;;;;4971457;28;20058;-75
2022/11/13 11:42:05;;;;;;;9.43;4.82;;;;;;;;;;4954220;28;20524;-76
2022/11/13 11:44:37;;;;;;;7.05;4.40;;;;;;;;;;4968376;28;20037;-75
2022/11/13 11:47:02;;;;;;;8.88;5.50;;;;;;;;;;4960419;28;20521;-75
2022/11/13 11:49:28;;;;;;;8.85;5.30;;;;;;;;;;4948659;28;20198;-75
2022/11/13 11:51:57;;;;;;;5.78;4.53;;;;;;;;;;4972973;28;20335;-76
2022/11/13 11:54:25;;;;;;;6.70;4.55;;;;;;;;;;4947361;28;20143;-74
2022/11/13 11:56:55;;;;;;;6.72;3.97;;;;;;;;;;4971171;28;20446;-75
2022/11/13 11:59:22;;;;;;;;;;;;;;;;;;4973013;28;20064;-76
2022/11/13 12:01:48;;;;;;;6.70;4.18;;;;;;;;;;4972417;28;19917;-77
2022/11/13 12:04:16;;;;;;;7.00;4.03;;;;;;;;;;4970542;28;20033;-77
2022/11/13 12:06:53;;;;;;;6.25;3.67;;;;;;;;;;4947291;28;20026;-77
2022/11/13 12:09:26;;;;;;;6.28;4.95;;;;;;;;;;4965944;28;20032;-77
2022/11/13 12:12:09;;;;;;;6.53;4.90;;;;;;;;;;4968167;28;20577;-76
2022/11/13 12:14:44;;;;;;;7.65;5.20;;;;;;;;;;4959301;28;20517;-76
2022/11/13 12:17:16;;;;;;;4.90;3.20;;;;;;;;;;4949805;28;20264;-76
2022/11/13 12:20:00;;;;;;;4.97;3.70;;;;;;;;;;4957689;28;20040;-75
2022/11/13 12:22:28;;;;;;;4.40;3.10;;;;;;;;;;4968175;28;20192;-76
2022/11/13 12:25:04;;;;;;;4.40;3.35;;;;;;;;;;4972521;28;20072;-76
2022/11/13 12:27:42;;;;;;;5.50;3.50;;;;;;;;;;4970456;28;20038;-76
2022/11/13 12:30:16;;;;;;;6.85;4.18;;;;;;;;;;4973583;28;20034;-76
2022/11/13 12:33:00;;;;;;;9.48;5.85;;;;;;;;;;4976347;28;20900;-76
2022/11/13 12:35:26;;;;;;;4.45;3.65;;;;;;;;;;4967831;28;20041;-76
2022/11/13 12:38:01;;;;;;;6.80;3.80;;;;;;;;;;4959400;28;20041;-75
2022/11/13 12:40:31;;;;;;;5.78;3.50;;;;;;;;;;4965396;28;20153;-76
2022/11/13 12:43:06;;;;;;;5.50;3.50;;;;;;;;;;4969253;28;20209;-76
2022/11/13 12:45:32;;;;;;;5.72;3.78;;;;;;;;;;4972185;28;20140;-76
2022/11/13 12:48:07;;;;;;;5.85;3.75;;;;;;;;;;4950815;28;20349;-76
2022/11/13 12:50:32;;;;;;;6.35;4.00;;;;;;;;;;4968681;28;20037;-77
2022/11/13 12:53:05;;;;;;;6.20;3.90;;;;;;;;;;4953362;28;20123;-77
2022/11/13 12:55:31;;;;;;;5.10;3.65;;;;;;;;;;4967219;28;20042;-77
2022/11/13 12:58:09;;;;;;;8.27;5.22;;;;;;;;;;4944508;28;20061;-77
2022/11/13 13:00:35;;;;;;;9.27;4.15;;;;;;;;;;4964194;28;20305;-76
2022/11/13 13:03:16;;;;;;;8.07;5.15;;;;;;;;;;4969568;28;20117;-77
2022/11/13 13:05:58;;;;;;;5.93;3.63;;;;;;;;;;4968308;28;20045;-76
2022/11/13 13:08:41;;;;;;;7.32;4.55;;;;;;;;;;4952004;28;20041;-77
2022/11/13 13:11:25;;;;;;;7.95;4.70;;;;;;;;;;4949739;28;20343;-77
2022/11/13 13:14:09;;;;;;;6.85;4.93;;;;;;;;;;4945978;28;20558;-76
2022/11/13 13:16:38;;;;;;;6.82;4.57;;;;;;;;;;4961510;28;20042;-77
2022/11/13 13:19:21;;;;;;;10.05;6.07;;;;;;;;;;4944629;28;20037;-76
2022/11/13 13:21:54;;;;;;;8.35;5.85;;;;;;;;;;4964271;28;20081;-76
2022/11/13 13:24:25;;;;;;;9.32;6.03;;;;;;;;;;4964893;28;20924;-76
2022/11/13 13:26:51;;;;;;;9.40;5.88;;;;;;;;;;4965336;28;20151;-77
2022/11/13 13:29:19;;;;;;;9.30;6.70;;;;;;;;;;4954146;28;20518;-77
2022/11/13 13:31:51;;;;;;;9.40;7.05;;;;;;;;;;4959347;28;21941;-77
2022/11/13 13:34:17;;;;;;;;;;;;;;;;;;4961135;28;21201;-77
2022/11/13 13:36:42;;;;;;;12.05;7.45;;;;;;;;;;4963808;28;19918;-77
2022/11/13 13:39:27;;;;;;;11.27;7.32;;;;;;;;;;4960784;28;20065;-77
2022/11/13 13:42:04;;;;;;;9.88;7.43;;;;;;;;;;4963014;28;20048;-77
2022/11/13 13:45:02;;;;;;;10.00;7.50;;;;;;;;;;4961762;28;20125;-77
2022/11/13 13:47:33;;;;;;;9.57;7.20;;;;;;;;;;4915401;28;20100;-76
2022/11/13 13:49:59;;;;;;;10.98;7.75;;;;;;;;;;4947510;28;20038;-76
2022/11/13 13:52:30;;;;;;;10.85;7.40;;;;;;;;;;4969796;28;20461;-76
2022/11/13 13:54:56;;;;;;;11.10;7.13;;;;;;;;;;4968252;28;20038;-76
2022/11/13 13:57:22;;;;;;;10.60;7.68;;;;;;;;;;4968614;28;20040;-76
2022/11/13 13:59:49;;;;;;;11.52;7.65;;;;;;;;;;4972423;28;20306;-76
2022/11/13 14:02:15;;;;;;;9.40;7.38;;;;;;;;;;4973286;28;20302;-76
2022/11/13 14:04:47;;;;;;;9.35;7.40;;;;;;;;;;4945737;28;20042;-76
2022/11/13 14:07:32;;;;;;;9.85;7.68;;;;;;;;;;4943901;28;20428;-76
2022/11/13 14:10:16;;;;;;;9.98;7.25;;;;;;;;;;4966468;28;20034;-77
2022/11/13 14:12:43;;;;;;;10.70;7.60;;;;;;;;;;4934405;28;20068;-77
2022/11/13 14:15:27;;;;;;;9.07;7.63;;;;;;;;;;4944058;28;20484;-77
2022/11/13 14:18:03;;;;;;;10.18;8.00;;;;;;;;;;4960321;28;20068;-76
2022/11/13 14:20:32;;;;;;;10.77;8.63;;;;;;;;;;4965283;28;20049;-77
2022/11/13 14:22:58;;;;;;;11.10;8.70;;;;;;;;;;4968307;28;20111;-77
2022/11/13 14:25:25;;;;;;;10.75;7.55;;;;;;;;;;4968278;28;20049;-75
2022/11/13 14:27:51;;;;;;;9.80;7.70;;;;;;;;;;4956292;28;20703;-76
2022/11/13 14:30:24;;;;;;;11.43;8.43;;;;;;;;;;4967213;28;20041;-76
2022/11/13 14:32:50;;;;;;;9.93;8.07;;;;;;;;;;4962644;28;20465;-75
2022/11/13 14:35:20;;;;;;;14.50;10.98;;;;;;;;;;4967256;28;20450;-75
2022/11/13 14:37:48;;;;;;;;;;;;;;;;;;4959604;28;20092;-77